Time;durP1;ratioP1;P1;durP2;ratioP2;P2;SDS_P1;SDS_P2;PMS_P1;PMS_P2;Temp;Humidity;BMP_temperature;BMP_pressure;BME280_temperature;BME280_humidity;BME280_pressure;Samples;Min_cycle;Max_cycle;Signal;HPM_P1;HPM_P2
2023/06/03 00:00:41;;;;;;;18.23;6.13;;;22.00;59.60;;;;;;7405210;19;20003;-78
2023/06/03 00:03:13;;;;;;;9.27;4.65;;;21.80;59.60;;;;;;7392336;19;20007;-78
2023/06/03 00:05:43;;;;;;;20.60;5.30;;;21.80;59.90;;;;;;7389396;19;20030;-78
2023/06/03 00:08:12;;;;;;;17.90;4.93;;;21.80;60.10;;;;;;7387644;19;20011;-78
2023/06/03 00:10:41;;;;;;;24.40;5.70;;;21.70;60.30;;;;;;7404489;19;20007;-78
2023/06/03 00:13:12;;;;;;;17.30;4.70;;;21.60;60.70;;;;;;7382912;19;20006;-78
2023/06/03 00:15:59;;;;;;;;;;;21.60;61.10;;;;;;7383804;19;20027;-78
2023/06/03 00:18:29;;;;;;;38.95;6.03;;;21.60;61.20;;;;;;7384542;19;19911;-78
2023/06/03 00:20:58;;;;;;;18.83;5.28;;;21.60;61.40;;;;;;7383997;19;20023;-78
2023/06/03 00:23:27;;;;;;;17.58;5.85;;;21.60;61.60;;;;;;7386035;19;20027;-78
2023/06/03 00:25:56;;;;;;;24.48;5.45;;;21.50;61.80;;;;;;7409210;19;20031;-78
2023/06/03 00:28:28;;;;;;;21.17;5.82;;;21.50;62.10;;;;;;7385437;19;20041;-78
2023/06/03 00:30:57;;;;;;;17.50;5.25;;;21.50;62.30;;;;;;7382813;19;20397;-78
2023/06/03 00:33:25;;;;;;;18.00;5.07;;;21.50;62.50;;;;;;7382697;19;20349;-78
2023/06/03 00:35:54;;;;;;;21.20;5.97;;;21.50;62.70;;;;;;7384221;19;20003;-78
2023/06/03 00:38:23;;;;;;;20.88;5.97;;;21.50;62.80;;;;;;7390074;19;20353;-78
2023/06/03 00:40:52;;;;;;;19.02;5.60;;;21.50;63.10;;;;;;7410706;19;20006;-78
2023/06/03 00:43:21;;;;;;;21.58;5.25;;;21.40;63.20;;;;;;7401046;19;20017;-79
2023/06/03 00:45:52;;;;;;;20.20;5.70;;;21.40;63.40;;;;;;7387222;19;20003;-78
2023/06/03 00:48:21;;;;;;;16.58;5.72;;;21.40;63.50;;;;;;7381584;19;20031;-78
2023/06/03 00:50:50;;;;;;;14.05;5.30;;;21.30;63.90;;;;;;7381434;19;20003;-79
2023/06/03 00:53:19;;;;;;;24.40;6.72;;;21.30;64.00;;;;;;7384981;19;20006;-79
2023/06/03 00:55:48;;;;;;;24.92;5.70;;;21.40;64.10;;;;;;7404011;19;20011;-78
2023/06/03 00:58:17;;;;;;;20.85;6.32;;;21.30;64.20;;;;;;7382345;19;20007;-79
2023/06/03 01:00:46;;;;;;;22.92;6.50;;;21.40;64.10;;;;;;7381788;19;20002;-79
2023/06/03 01:03:19;;;;;;;26.85;6.47;;;21.40;64.30;;;;;;7382546;19;20013;-80
2023/06/03 01:05:54;;;;;;;19.60;6.35;;;21.30;64.60;;;;;;7382240;19;20260;-79
2023/06/03 01:08:35;;;;;;;17.83;5.38;;;21.20;65.20;;;;;;7384780;19;20327;-79
2023/06/03 01:11:11;;;;;;;27.25;6.65;;;21.10;65.20;;;;;;7402829;19;20448;-79
2023/06/03 01:13:48;;;;;;;33.08;7.20;;;21.10;65.60;;;;;;7384715;19;20021;-79
2023/06/03 01:16:20;;;;;;;25.92;7.05;;;20.90;65.90;;;;;;7383017;19;20236;-79
2023/06/03 01:18:52;;;;;;;18.75;6.45;;;20.90;66.10;;;;;;7382154;19;20011;-79
2023/06/03 01:21:24;;;;;;;24.08;6.82;;;20.90;66.40;;;;;;7381309;19;20241;-79
2023/06/03 01:23:56;;;;;;;18.80;7.50;;;20.80;66.60;;;;;;7381458;19;19999;-79
2023/06/03 01:26:28;;;;;;;31.20;7.22;;;20.80;66.80;;;;;;7381835;19;20003;-79
2023/06/03 01:29:03;;;;;;;20.80;6.25;;;20.80;66.90;;;;;;7403856;19;20066;-81
2023/06/03 01:31:32;;;;;;;26.98;6.53;;;20.80;66.90;;;;;;7384940;19;19999;-79
2023/06/03 01:34:03;;;;;;;27.58;8.68;;;20.80;66.90;;;;;;7386683;19;20015;-79
2023/06/03 01:36:35;;;;;;;41.38;8.13;;;20.70;67.20;;;;;;7386378;19;20031;-79
2023/06/03 01:39:11;;;;;;;23.42;8.27;;;20.70;67.40;;;;;;7385942;19;20014;-79
2023/06/03 01:41:47;;;;;;;36.13;7.70;;;20.60;67.50;;;;;;7381596;19;20238;-79
2023/06/03 01:44:16;;;;;;;28.00;7.47;;;20.60;67.70;;;;;;7379442;19;20013;-78
2023/06/03 01:46:49;;;;;;;24.45;7.28;;;20.60;67.90;;;;;;7402380;19;20014;-79
2023/06/03 01:49:19;;;;;;;24.85;7.05;;;20.60;67.90;;;;;;7385891;19;20003;-79
2023/06/03 01:51:48;;;;;;;26.70;7.68;;;20.60;67.90;;;;;;7384756;19;20006;-78
2023/06/03 01:54:25;;;;;;;25.58;7.55;;;20.60;67.90;;;;;;7384273;19;20030;-78
2023/06/03 01:56:54;;;;;;;20.75;7.85;;;20.60;68.00;;;;;;7383324;19;20006;-78
2023/06/03 01:59:23;;;;;;;19.67;7.65;;;20.50;68.20;;;;;;7378948;19;20006;-78
2023/06/03 02:01:52;;;;;;;24.55;7.47;;;20.50;68.40;;;;;;7400600;19;20010;-78
2023/06/03 02:04:21;;;;;;;28.23;8.20;;;20.60;68.30;;;;;;7380379;19;20010;-79
2023/06/03 02:06:53;;;;;;;23.75;7.65;;;20.60;68.20;;;;;;7382524;19;20002;-79
2023/06/03 02:09:27;;;;;;;18.20;8.35;;;20.60;68.10;;;;;;7389712;19;20006;-78
2023/06/03 02:11:56;;;;;;;21.48;7.70;;;20.60;68.20;;;;;;7396079;19;20011;-77
2023/06/03 02:14:25;;;;;;;26.45;8.05;;;20.60;68.30;;;;;;7384506;19;20024;-78
2023/06/03 02:16:55;;;;;;;18.35;6.97;;;20.50;68.40;;;;;;7402309;19;20067;-78
2023/06/03 02:19:26;;;;;;;25.17;7.95;;;20.50;68.60;;;;;;7377549;19;20022;-78
2023/06/03 02:22:00;;;;;;;21.52;7.90;;;20.50;68.70;;;;;;7379309;19;20307;-78
2023/06/03 02:24:31;;;;;;;18.40;7.38;;;20.40;68.70;;;;;;7388128;19;20010;-78
2023/06/03 02:27:04;;;;;;;26.23;8.73;;;20.30;68.80;;;;;;7387232;19;19999;-80
2023/06/03 02:29:34;;;;;;;36.83;9.25;;;20.30;69.10;;;;;;7387424;19;20036;-79
2023/06/03 02:32:03;;;;;;;23.92;8.75;;;20.20;69.60;;;;;;7408397;19;20254;-79
2023/06/03 02:34:32;;;;;;;29.42;9.68;;;20.10;69.90;;;;;;7388443;19;20007;-78
2023/06/03 02:37:01;;;;;;;28.70;10.07;;;20.10;69.90;;;;;;7387237;19;20108;-79
2023/06/03 02:39:33;;;;;;;34.45;9.82;;;20.10;70.00;;;;;;7386236;19;20014;-78
2023/06/03 02:42:02;;;;;;;;;;;20.10;70.10;;;;;;7386204;19;20003;-78
2023/06/03 02:44:32;;;;;;;27.33;8.85;;;20.10;70.10;;;;;;7386590;19;19945;-78
2023/06/03 02:47:01;;;;;;;30.27;9.85;;;20.10;70.10;;;;;;7407555;19;20031;-78
2023/06/03 02:49:30;;;;;;;21.33;8.60;;;20.10;70.20;;;;;;7388784;19;20035;-78
2023/06/03 02:51:59;;;;;;;25.85;9.05;;;20.10;70.20;;;;;;7389070;19;20239;-79
2023/06/03 02:54:28;;;;;;;22.88;9.25;;;20.00;70.20;;;;;;7391934;19;20014;-78
2023/06/03 02:57:00;;;;;;;26.67;8.82;;;19.90;70.50;;;;;;7386682;19;20006;-78
2023/06/03 02:59:28;;;;;;;;;;;19.90;70.70;;;;;;7386568;19;20018;-79
2023/06/03 03:01:57;;;;;;;27.48;9.23;;;19.90;70.80;;;;;;7403352;19;19939;-77
2023/06/03 03:04:26;;;;;;;24.33;8.82;;;20.00;70.70;;;;;;7384460;19;20006;-78
2023/06/03 03:06:57;;;;;;;29.65;8.93;;;19.90;70.80;;;;;;7383116;19;20031;-77
2023/06/03 03:09:25;;;;;;;29.23;9.45;;;20.00;70.70;;;;;;7385571;19;20011;-79
2023/06/03 03:11:54;;;;;;;25.70;10.27;;;19.90;70.70;;;;;;7385661;19;20006;-79
2023/06/03 03:14:26;;;;;;;20.38;10.13;;;19.90;70.70;;;;;;7398410;19;20007;-77
2023/06/03 03:16:54;;;;;;;;;;;19.90;70.80;;;;;;7406406;19;20053;-78
2023/06/03 03:19:23;;;;;;;28.73;9.00;;;19.90;70.80;;;;;;7384183;19;19911;-78
2023/06/03 03:21:52;;;;;;;22.23;9.05;;;19.90;70.80;;;;;;7383641;19;20007;-78
2023/06/03 03:24:22;;;;;;;33.28;10.13;;;19.90;71.00;;;;;;7385442;19;20652;-78
2023/06/03 03:26:51;;;;;;;29.15;9.93;;;19.90;71.10;;;;;;7390412;19;20009;-78
2023/06/03 03:29:23;;;;;;;28.02;9.85;;;19.80;71.10;;;;;;7388070;19;20035;-78
2023/06/03 03:31:57;;;;;;;29.30;8.93;;;19.80;71.30;;;;;;7408874;19;20028;-79
2023/06/03 03:34:26;;;;;;;25.02;8.75;;;19.70;71.50;;;;;;7388570;19;20063;-79
2023/06/03 03:36:55;;;;;;;27.00;10.18;;;19.70;71.60;;;;;;7385817;19;20007;-77
2023/06/03 03:39:24;;;;;;;26.83;8.45;;;19.70;71.70;;;;;;7385652;19;20014;-77
2023/06/03 03:41:53;;;;;;;25.42;10.55;;;19.70;71.60;;;;;;7388626;19;20371;-78
2023/06/03 03:44:22;;;;;;;33.05;10.05;;;19.70;71.60;;;;;;7384573;19;20002;-78
2023/06/03 03:46:58;;;;;;;33.22;10.13;;;19.70;71.70;;;;;;7405489;19;20054;-78
2023/06/03 03:49:33;;;;;;;37.67;10.35;;;19.70;71.70;;;;;;7389223;19;20393;-78
2023/06/03 03:52:06;;;;;;;29.38;10.40;;;19.60;71.70;;;;;;7386564;19;20593;-78
2023/06/03 03:54:36;;;;;;;31.95;10.60;;;19.20;72.60;;;;;;7390846;19;20066;-79
2023/06/03 03:57:12;;;;;;;31.17;10.40;;;19.50;72.30;;;;;;7391024;19;20006;-79
2023/06/03 03:59:41;;;;;;;26.52;10.00;;;19.60;72.20;;;;;;7387520;19;20014;-79
2023/06/03 04:02:13;;;;;;;27.27;10.80;;;19.60;72.20;;;;;;7405527;19;20023;-78
2023/06/03 04:04:45;;;;;;;27.67;11.25;;;19.60;72.10;;;;;;7383606;19;20040;-78
2023/06/03 04:07:20;;;;;;;26.60;10.32;;;19.50;72.00;;;;;;7382456;19;20089;-78
2023/06/03 04:09:49;;;;;;;23.20;10.30;;;19.50;72.10;;;;;;7381830;19;20038;-78
2023/06/03 04:12:23;;;;;;;38.38;11.50;;;19.50;72.20;;;;;;7382017;19;20031;-80
2023/06/03 04:14:53;;;;;;;36.97;10.63;;;19.50;72.20;;;;;;7383477;19;20236;-78
2023/06/03 04:17:25;;;;;;;28.38;10.55;;;19.50;72.50;;;;;;7382530;19;20027;-77
2023/06/03 04:19:55;;;;;;;29.00;11.90;;;19.50;72.50;;;;;;7412030;19;20003;-77
2023/06/03 04:22:26;;;;;;;29.27;11.23;;;19.40;72.80;;;;;;7406259;19;20002;-77
2023/06/03 04:24:57;;;;;;;;;;;19.30;73.10;;;;;;7405427;19;20282;-77
2023/06/03 04:27:26;;;;;;;27.75;10.98;;;19.30;73.40;;;;;;7383848;19;19907;-78
2023/06/03 04:29:55;;;;;;;32.45;10.57;;;19.30;73.30;;;;;;7381348;19;20102;-78
2023/06/03 04:32:27;;;;;;;30.58;10.50;;;19.30;73.40;;;;;;7379450;19;20002;-78
2023/06/03 04:34:56;;;;;;;;;;;19.30;73.40;;;;;;7400953;19;20249;-78
2023/06/03 04:37:26;;;;;;;21.67;10.35;;;19.40;73.30;;;;;;7381850;19;20138;-78
2023/06/03 04:39:58;;;;;;;34.20;10.85;;;19.40;74.00;;;;;;7381251;19;20006;-78
2023/06/03 04:42:30;;;;;;;32.42;12.27;;;19.40;74.10;;;;;;7382887;19;20006;-79
2023/06/03 04:45:00;;;;;;;30.30;10.88;;;19.30;73.40;;;;;;7382249;19;20016;-78
2023/06/03 04:47:31;;;;;;;20.95;10.05;;;19.30;73.60;;;;;;7382841;19;20011;-78
2023/06/03 04:50:00;;;;;;;;;;;19.30;73.70;;;;;;7406508;19;20006;-79
2023/06/03 04:52:31;;;;;;;37.22;11.60;;;19.40;73.60;;;;;;7382623;19;19919;-78
2023/06/03 04:55:00;;;;;;;27.23;10.63;;;19.40;73.50;;;;;;7381027;19;20006;-78
2023/06/03 04:57:28;;;;;;;38.30;10.90;;;19.30;74.40;;;;;;7380646;19;20219;-78
2023/06/03 04:59:57;;;;;;;33.10;10.60;;;19.30;73.70;;;;;;7382679;19;20272;-79
2023/06/03 05:02:29;;;;;;;33.55;11.23;;;19.30;73.80;;;;;;7382221;19;20003;-78
2023/06/03 05:05:01;;;;;;;28.17;10.98;;;19.40;73.60;;;;;;7401543;19;20007;-78
2023/06/03 05:07:29;;;;;;;34.22;12.10;;;19.40;73.50;;;;;;7380654;19;20062;-77
2023/06/03 05:09:58;;;;;;;26.90;10.88;;;19.40;73.70;;;;;;7381025;19;19999;-77
2023/06/03 05:12:27;;;;;;;38.50;11.90;;;19.40;73.70;;;;;;7380561;19;20011;-77
2023/06/03 05:14:56;;;;;;;28.98;11.25;;;19.30;73.70;;;;;;7379948;19;20055;-77
2023/06/03 05:17:25;;;;;;;35.70;11.70;;;19.30;73.80;;;;;;7380652;19;20232;-77
2023/06/03 05:19:53;;;;;;;29.45;12.45;;;19.20;74.00;;;;;;7398753;19;20268;-77
2023/06/03 05:22:25;;;;;;;30.50;11.32;;;19.10;74.00;;;;;;7379053;19;20007;-78
2023/06/03 05:24:54;;;;;;;27.30;11.73;;;19.20;74.50;;;;;;7381477;19;20007;-78
2023/06/03 05:27:22;;;;;;;41.10;12.23;;;19.10;74.50;;;;;;7381977;19;20006;-78
2023/06/03 05:29:51;;;;;;;36.00;11.10;;;19.10;74.70;;;;;;7381695;19;20521;-78
2023/06/03 05:32:20;;;;;;;34.17;11.95;;;19.20;74.70;;;;;;7380544;19;20035;-78
2023/06/03 05:34:49;;;;;;;34.33;11.20;;;19.20;74.40;;;;;;7405474;19;20002;-78
2023/06/03 05:37:17;;;;;;;32.80;10.43;;;19.20;74.20;;;;;;7382989;19;20007;-79
2023/06/03 05:39:49;;;;;;;29.80;12.00;;;19.30;74.30;;;;;;7383690;19;20033;-79
2023/06/03 05:42:18;;;;;;;31.40;12.05;;;19.40;74.10;;;;;;7396919;19;20017;-78
2023/06/03 05:44:47;;;;;;;29.83;11.15;;;19.50;74.10;;;;;;7402516;19;20003;-78
2023/06/03 05:47:16;;;;;;;28.70;11.30;;;19.50;73.40;;;;;;7400590;19;20373;-77
2023/06/03 05:49:45;;;;;;;22.90;9.30;;;19.60;73.30;;;;;;7418832;19;20027;-78
2023/06/03 05:52:14;;;;;;;32.70;9.90;;;19.60;73.00;;;;;;7399089;19;20030;-78
2023/06/03 05:54:43;;;;;;;26.75;10.38;;;19.60;73.00;;;;;;7398431;19;20006;-78
2023/06/03 05:57:14;;;;;;;25.20;10.07;;;19.70;72.90;;;;;;7396319;19;20003;-78
2023/06/03 05:59:43;;;;;;;;;;;19.80;72.80;;;;;;7396893;19;20027;-77
2023/06/03 06:02:11;;;;;;;27.48;9.77;;;19.90;72.60;;;;;;7405106;19;19923;-77
2023/06/03 06:04:40;;;;;;;24.98;8.88;;;19.90;72.20;;;;;;7412865;19;20026;-78
2023/06/03 06:07:09;;;;;;;21.30;10.00;;;20.00;71.90;;;;;;7388169;19;20017;-78
2023/06/03 06:09:38;;;;;;;31.02;9.82;;;20.00;71.70;;;;;;7384884;19;20007;-78
2023/06/03 06:12:07;;;;;;;29.75;8.82;;;20.00;71.60;;;;;;7383291;19;20011;-78
2023/06/03 06:14:39;;;;;;;20.08;9.32;;;20.10;71.50;;;;;;7391584;19;19999;-78
2023/06/03 06:17:07;;;;;;;;;;;20.10;71.30;;;;;;7415282;19;20031;-78
2023/06/03 06:19:37;;;;;;;26.00;9.80;;;20.20;71.30;;;;;;7385922;19;19911;-77
2023/06/03 06:22:07;;;;;;;25.40;9.52;;;20.20;70.90;;;;;;7384357;19;20017;-76
2023/06/03 06:24:35;;;;;;;29.60;9.52;;;20.30;71.10;;;;;;7386005;19;19999;-77
2023/06/03 06:27:04;;;;;;;25.95;9.90;;;20.30;71.00;;;;;;7378616;19;20390;-77
2023/06/03 06:29:34;;;;;;;25.60;9.45;;;20.20;70.70;;;;;;7379408;19;20047;-77
2023/06/03 06:32:06;;;;;;;27.92;9.00;;;20.30;70.70;;;;;;7398179;19;20007;-77
2023/06/03 06:34:37;;;;;;;23.25;9.07;;;20.30;70.70;;;;;;7379415;19;20003;-77
2023/06/03 06:37:09;;;;;;;24.17;10.10;;;20.40;70.80;;;;;;7380750;19;20012;-77
2023/06/03 06:39:53;;;;;;;27.48;9.35;;;20.40;70.80;;;;;;7397500;19;19999;-77
2023/06/03 06:42:31;;;;;;;26.55;9.90;;;20.40;70.90;;;;;;7380478;19;20354;-77
2023/06/03 06:45:06;;;;;;;33.70;9.95;;;20.30;70.70;;;;;;7380472;19;20011;-77
2023/06/03 06:47:39;;;;;;;22.92;9.63;;;20.10;71.00;;;;;;7376171;19;20007;-77
2023/06/03 06:50:15;;;;;;;25.10;10.07;;;20.20;71.40;;;;;;7397318;19;19999;-77
2023/06/03 06:52:44;;;;;;;28.45;10.23;;;20.20;71.20;;;;;;7376925;19;20002;-77
2023/06/03 06:55:27;;;;;;;24.92;9.70;;;20.20;71.30;;;;;;7376234;19;20007;-77
2023/06/03 06:57:57;;;;;;;24.88;9.30;;;20.20;71.10;;;;;;7376267;19;20011;-77
2023/06/03 07:00:26;;;;;;;25.15;9.98;;;20.30;71.60;;;;;;7375471;19;20009;-78
2023/06/03 07:02:57;;;;;;;28.60;9.43;;;20.30;71.40;;;;;;7374734;19;20006;-77
2023/06/03 07:05:26;;;;;;;;;;;20.40;71.50;;;;;;7376010;19;20027;-77
2023/06/03 07:07:55;;;;;;;31.58;9.98;;;20.40;71.20;;;;;;7396851;19;19932;-77
2023/06/03 07:10:24;;;;;;;27.75;8.57;;;20.20;71.10;;;;;;7383657;19;20014;-77
2023/06/03 07:12:55;;;;;;;22.65;9.30;;;20.30;71.70;;;;;;7383206;19;20010;-77
2023/06/03 07:15:24;;;;;;;34.58;9.40;;;20.30;71.00;;;;;;7385676;19;20028;-77
2023/06/03 07:17:54;;;;;;;25.02;9.77;;;20.40;71.20;;;;;;7384810;19;20027;-78
2023/06/03 07:20:32;;;;;;;25.55;9.15;;;20.50;70.90;;;;;;7380888;19;20024;-77
2023/06/03 07:23:01;;;;;;;24.52;8.80;;;20.50;71.10;;;;;;7404963;19;20386;-77
2023/06/03 07:25:37;;;;;;;30.77;9.10;;;20.60;71.10;;;;;;7383304;19;20580;-77
2023/06/03 07:28:07;;;;;;;24.70;8.27;;;20.60;70.80;;;;;;7382919;19;20015;-77
2023/06/03 07:30:37;;;;;;;21.83;8.38;;;20.60;70.50;;;;;;7384404;19;20042;-77
2023/06/03 07:33:07;;;;;;;26.35;8.73;;;20.70;70.50;;;;;;7384321;19;20309;-78
2023/06/03 07:35:39;;;;;;;29.38;9.25;;;20.60;70.50;;;;;;7383910;19;20014;-77
2023/06/03 07:38:07;;;;;;;;;;;20.70;70.30;;;;;;7403424;19;20028;-77
2023/06/03 07:40:42;;;;;;;25.10;8.32;;;20.90;70.20;;;;;;7383446;19;20459;-77
2023/06/03 07:43:12;;;;;;;19.23;8.00;;;20.90;69.70;;;;;;7382125;19;20354;-77
2023/06/03 07:45:41;;;;;;;28.00;9.07;;;21.00;69.70;;;;;;7381514;19;20006;-77
2023/06/03 07:48:17;;;;;;;22.77;8.43;;;21.10;69.30;;;;;;7381854;19;20018;-77
2023/06/03 07:50:49;;;;;;;29.10;8.38;;;21.20;69.20;;;;;;7386149;19;20016;-77
2023/06/03 07:53:25;;;;;;;25.00;8.60;;;21.10;68.80;;;;;;7382331;19;20003;-77
2023/06/03 07:55:54;;;;;;;21.60;9.25;;;21.10;68.60;;;;;;7403145;19;20007;-77
2023/06/03 07:58:23;;;;;;;26.30;8.68;;;21.20;68.80;;;;;;7382338;19;20011;-77
2023/06/03 08:00:53;;;;;;;25.98;8.55;;;21.10;68.90;;;;;;7382728;19;20007;-77
2023/06/03 08:03:23;;;;;;;20.50;7.90;;;21.10;69.10;;;;;;7381070;19;20055;-77
2023/06/03 08:05:55;;;;;;;21.85;8.18;;;21.20;69.40;;;;;;7380638;19;20279;-77
2023/06/03 08:08:26;;;;;;;;;;;21.30;69.60;;;;;;7380835;19;20032;-77
2023/06/03 08:10:55;;;;;;;16.67;7.88;;;21.40;68.50;;;;;;7401750;19;19903;-77
2023/06/03 08:13:24;;;;;;;25.17;9.10;;;21.40;68.60;;;;;;7382361;19;20006;-78
2023/06/03 08:15:52;;;;;;;24.40;8.80;;;21.40;68.20;;;;;;7402470;19;20007;-77
2023/06/03 08:18:39;;;;;;;29.60;8.35;;;21.30;68.20;;;;;;7408243;19;20030;-77
2023/06/03 08:21:11;;;;;;;28.63;8.60;;;21.30;68.80;;;;;;7387128;19;20011;-77
2023/06/03 08:27:40;;;;;;;22.20;9.07;;;21.20;69.10;;;;;;7409219;19;20371;-82
2023/06/03 08:30:12;;;;;;;26.02;9.38;;;20.70;70.40;;;;;;7379602;19;20749;-79
2023/06/03 08:42:00;;;;;;;26.27;8.00;;;21.10;68.60;;;;;;7381445;19;20162;-78
2023/06/03 08:44:38;;;;;;;19.77;7.75;;;21.20;69.20;;;;;;7380148;19;20011;-78
2023/06/03 08:47:11;;;;;;;;;;;21.20;69.00;;;;;;7400508;19;19999;-78
2023/06/03 08:49:43;;;;;;;;;;;21.40;68.40;;;;;;7385250;19;19907;-78
2023/06/03 08:52:12;;;;;;;24.60;7.80;;;21.40;68.70;;;;;;7396189;19;19921;-77
2023/06/03 08:54:44;;;;;;;23.65;8.50;;;21.50;68.60;;;;;;7392720;19;20723;-77
2023/06/03 08:57:19;;;;;;;23.50;7.43;;;21.00;69.70;;;;;;7380575;19;20025;-77
2023/06/03 08:59:51;;;;;;;23.25;7.78;;;21.40;69.30;;;;;;7380605;19;20359;-78
2023/06/03 09:02:21;;;;;;;18.50;7.57;;;21.60;68.50;;;;;;7381141;19;20032;-79
2023/06/03 09:04:55;;;;;;;27.48;8.23;;;21.60;68.00;;;;;;7403611;19;20345;-79
2023/06/03 09:08:19;;;;;;;20.10;7.65;;;21.20;69.20;;;;;;7386899;19;20002;-79
2023/06/03 09:10:55;;;;;;;22.67;7.10;;;21.60;68.30;;;;;;7381862;19;20366;-80
2023/06/03 09:13:32;;;;;;;23.70;7.85;;;21.70;67.20;;;;;;7380131;19;20690;-80
2023/06/03 09:16:11;;;;;;;34.85;7.35;;;21.80;67.20;;;;;;7381203;19;20023;-79
2023/06/03 09:19:07;;;;;;;21.38;6.72;;;21.70;67.30;;;;;;7381671;19;20005;-80
2023/06/03 09:24:49;;;;;;;22.50;7.32;;;21.90;67.10;;;;;;7382429;19;20239;-82
2023/06/03 09:40:30;;;;;;;;;;;;;;;;;;;;;
2023/06/03 09:46:31;;;;;;;17.05;5.80;;;22.20;66.50;;;;;;7403095;19;20070;-79
2023/06/03 09:49:13;;;;;;;14.30;5.35;;;22.30;66.30;;;;;;7379567;19;20385;-78
2023/06/03 09:51:44;;;;;;;15.63;6.20;;;22.40;64.90;;;;;;7379433;19;20064;-79
2023/06/03 10:11:09;;;;;;;13.60;5.47;;;22.70;62.90;;;;;;7377491;19;20014;-78
2023/06/03 10:13:38;;;;;;;14.55;5.63;;;22.60;62.70;;;;;;7384123;19;20256;-77
2023/06/03 10:19:26;;;;;;;15.23;5.95;;;22.90;63.50;;;;;;7379258;19;20005;-77
2023/06/03 10:21:55;;;;;;;20.70;5.82;;;23.00;63.00;;;;;;7376234;19;20025;-74
2023/06/03 10:24:27;;;;;;;17.95;6.00;;;23.10;62.70;;;;;;7374130;19;20006;-76
2023/06/03 10:26:59;;;;;;;20.52;5.82;;;23.20;61.60;;;;;;7378620;19;20028;-77
2023/06/03 10:29:29;;;;;;;15.75;5.72;;;23.20;60.70;;;;;;7375309;19;20006;-77
2023/06/03 10:32:00;;;;;;;15.45;5.22;;;23.30;61.30;;;;;;7395093;19;20005;-76
2023/06/03 10:34:31;;;;;;;14.13;6.07;;;23.40;61.10;;;;;;7375418;19;20074;-75
2023/06/03 10:37:01;;;;;;;13.27;5.22;;;23.50;59.90;;;;;;7375466;19;20011;-76
2023/06/03 10:39:32;;;;;;;15.25;5.60;;;23.60;59.80;;;;;;7377696;19;20289;-76
2023/06/03 10:42:05;;;;;;;12.52;5.93;;;23.60;59.80;;;;;;7380255;19;20006;-75
2023/06/03 10:44:34;;;;;;;11.90;5.55;;;23.70;59.60;;;;;;7383345;19;20027;-75
2023/06/03 10:47:07;;;;;;;12.83;5.53;;;23.80;58.60;;;;;;7404999;19;20381;-75
2023/06/03 10:49:39;;;;;;;16.40;4.80;;;23.40;59.30;;;;;;7384945;19;20019;-75
2023/06/03 10:52:49;;;;;;;15.30;5.47;;;23.70;59.30;;;;;;7385940;19;20309;-75
2023/06/03 10:55:35;;;;;;;10.43;5.13;;;23.80;59.20;;;;;;7383744;19;20743;-75
2023/06/03 10:58:19;;;;;;;14.10;5.28;;;23.90;58.10;;;;;;7386293;19;20064;-74
2023/06/03 11:00:56;;;;;;;15.00;5.15;;;23.90;57.70;;;;;;7383615;19;20006;-75
2023/06/03 11:03:25;;;;;;;14.95;5.40;;;23.90;57.50;;;;;;7382703;19;20011;-72
2023/06/03 11:05:54;;;;;;;12.68;5.13;;;24.00;58.50;;;;;;7382882;19;20010;-73
2023/06/03 11:08:53;;;;;;;18.52;5.07;;;24.10;58.90;;;;;;7383803;19;20375;-73
2023/06/03 11:11:52;;;;;;;11.68;5.40;;;24.10;58.80;;;;;;7385190;19;20019;-73
2023/06/03 11:14:51;;;;;;;12.13;5.35;;;24.20;58.80;;;;;;7384514;19;20011;-73
2023/06/03 11:17:23;;;;;;;12.60;5.28;;;24.10;58.00;;;;;;7382557;19;20525;-73
2023/06/03 11:19:54;;;;;;;13.73;5.50;;;24.30;57.70;;;;;;7405632;19;20006;-73
2023/06/03 11:22:44;;;;;;;15.90;5.82;;;24.40;57.70;;;;;;7383925;19;20003;-72
2023/06/03 11:25:29;;;;;;;14.65;5.63;;;24.40;57.90;;;;;;7381895;19;20042;-72
2023/06/03 11:28:35;;;;;;;16.35;5.88;;;24.40;57.20;;;;;;7382708;19;20002;-72
2023/06/03 11:31:06;;;;;;;12.48;6.20;;;24.40;57.70;;;;;;7383899;19;20420;-73
2023/06/03 11:33:37;;;;;;;;;;;24.50;57.80;;;;;;7383845;19;20227;-72
2023/06/03 11:36:36;;;;;;;16.67;5.55;;;24.60;57.70;;;;;;7383152;19;19907;-72
2023/06/03 11:39:05;;;;;;;13.38;6.00;;;24.60;58.10;;;;;;7380266;19;20023;-72
2023/06/03 11:42:05;;;;;;;14.80;5.35;;;24.60;57.90;;;;;;7382770;19;20014;-72
2023/06/03 11:44:34;;;;;;;11.73;5.50;;;24.60;57.50;;;;;;7380368;19;20026;-72
2023/06/03 11:47:03;;;;;;;14.27;6.18;;;24.70;57.50;;;;;;7404159;19;20010;-72
2023/06/03 11:49:36;;;;;;;13.82;6.05;;;24.80;58.00;;;;;;7384974;19;20013;-72
2023/06/03 11:52:05;;;;;;;17.83;6.18;;;24.70;58.10;;;;;;7383389;19;20107;-72
2023/06/03 11:54:34;;;;;;;19.63;5.68;;;24.70;57.80;;;;;;7382251;19;20007;-72
2023/06/03 11:57:03;;;;;;;14.88;5.90;;;24.80;57.70;;;;;;7383759;19;20010;-72
2023/06/03 11:59:37;;;;;;;14.07;5.68;;;24.90;57.70;;;;;;7388768;19;20331;-71
2023/06/03 12:02:08;;;;;;;19.30;7.05;;;24.90;57.10;;;;;;7410530;19;20011;-72
2023/06/03 12:04:39;;;;;;;15.20;6.93;;;24.90;57.20;;;;;;7381144;19;20083;-72
2023/06/03 12:07:15;;;;;;;17.00;5.85;;;25.00;57.40;;;;;;7382017;19;20002;-72
2023/06/03 12:09:44;;;;;;;12.90;5.45;;;25.10;57.70;;;;;;7380659;19;20273;-72
2023/06/03 12:12:14;;;;;;;15.07;5.50;;;25.10;56.10;;;;;;7381342;19;20258;-72
2023/06/03 12:14:44;;;;;;;14.98;5.70;;;25.20;56.90;;;;;;7382409;19;19998;-72
2023/06/03 12:17:15;;;;;;;15.13;5.80;;;25.20;57.50;;;;;;7381157;19;20354;-73
2023/06/03 12:19:48;;;;;;;13.98;6.18;;;25.10;57.30;;;;;;7403143;19;20021;-72
2023/06/03 12:22:23;;;;;;;11.65;5.65;;;25.10;55.60;;;;;;7381676;19;20074;-72
2023/06/03 12:24:52;;;;;;;14.73;5.75;;;25.20;56.70;;;;;;7381150;19;20009;-72
2023/06/03 12:27:24;;;;;;;19.33;5.75;;;25.20;56.90;;;;;;7381648;19;20011;-73
2023/06/03 12:29:55;;;;;;;14.65;6.20;;;25.20;56.60;;;;;;7381329;19;19999;-73
2023/06/03 12:32:25;;;;;;;16.15;6.35;;;25.30;55.90;;;;;;7379517;19;20062;-72
2023/06/03 12:34:56;;;;;;;12.40;6.05;;;25.40;55.70;;;;;;7400170;19;20066;-72
2023/06/03 12:37:30;;;;;;;10.95;5.05;;;25.40;55.50;;;;;;7380783;19;20062;-72
2023/06/03 12:39:59;;;;;;;14.02;6.47;;;25.40;55.70;;;;;;7382602;19;20354;-73
2023/06/03 12:42:38;;;;;;;14.88;5.65;;;25.40;56.10;;;;;;7380941;19;20002;-72
2023/06/03 12:45:09;;;;;;;14.32;6.40;;;25.50;55.20;;;;;;7380114;19;20078;-72
2023/06/03 12:47:45;;;;;;;18.30;6.03;;;25.50;54.80;;;;;;7380932;19;20435;-72
2023/06/03 12:50:18;;;;;;;12.70;5.80;;;25.30;55.20;;;;;;7378387;19;20010;-72
2023/06/03 12:52:47;;;;;;;13.68;5.85;;;25.40;55.50;;;;;;7405096;19;20010;-73
2023/06/03 12:55:18;;;;;;;13.15;6.15;;;25.40;55.90;;;;;;7379790;19;20011;-73
2023/06/03 12:57:48;;;;;;;13.20;5.75;;;25.50;54.80;;;;;;7380580;19;20014;-72
2023/06/03 13:00:19;;;;;;;11.77;5.78;;;25.40;55.80;;;;;;7379757;19;20007;-72
2023/06/03 13:02:49;;;;;;;12.32;5.45;;;25.50;55.60;;;;;;7380244;19;20006;-72
2023/06/03 13:05:22;;;;;;;11.43;5.32;;;25.70;56.20;;;;;;7377819;19;20093;-73
2023/06/03 13:07:52;;;;;;;12.23;6.18;;;25.80;55.50;;;;;;7400795;19;20025;-72
2023/06/03 13:10:21;;;;;;;12.27;5.40;;;25.90;55.00;;;;;;7379534;19;19998;-73
2023/06/03 13:12:49;;;;;;;10.35;5.70;;;26.10;54.00;;;;;;7379728;19;20059;-73
2023/06/03 13:15:19;;;;;;;15.18;5.95;;;26.20;53.90;;;;;;7381318;19;20020;-73
2023/06/03 13:17:47;;;;;;;9.80;5.65;;;26.20;54.60;;;;;;7379703;19;20056;-73
2023/06/03 13:20:16;;;;;;;10.45;5.72;;;26.30;54.10;;;;;;7379318;19;20009;-73
2023/06/03 13:22:47;;;;;;;22.42;6.05;;;26.30;53.60;;;;;;7403459;19;20009;-72
2023/06/03 13:25:16;;;;;;;13.20;5.88;;;26.30;54.20;;;;;;7379757;19;20010;-71
2023/06/03 13:27:46;;;;;;;17.30;5.72;;;26.40;54.40;;;;;;7380772;19;20024;-71
2023/06/03 13:30:15;;;;;;;11.07;5.07;;;26.40;53.40;;;;;;7380466;19;20007;-72
2023/06/03 13:32:45;;;;;;;22.60;5.60;;;26.30;53.50;;;;;;7378985;19;20010;-72
2023/06/03 13:35:14;;;;;;;14.48;5.35;;;26.40;53.70;;;;;;7379086;19;20011;-72
2023/06/03 13:37:43;;;;;;;13.02;5.75;;;26.50;53.90;;;;;;7401017;19;20011;-72
2023/06/03 13:40:14;;;;;;;12.05;5.70;;;26.50;53.30;;;;;;7378624;19;20010;-72
2023/06/03 13:42:43;;;;;;;10.00;4.93;;;26.60;53.10;;;;;;7379066;19;20276;-72
2023/06/03 13:45:13;;;;;;;13.68;5.75;;;26.70;52.80;;;;;;7377664;19;20027;-72
2023/06/03 13:47:42;;;;;;;13.23;5.60;;;26.80;52.10;;;;;;7379943;19;20006;-73
2023/06/03 13:50:11;;;;;;;10.82;5.50;;;26.90;52.30;;;;;;7401116;19;20058;-72
2023/06/03 13:52:40;;;;;;;15.05;5.82;;;26.90;51.10;;;;;;7380308;19;20062;-72
2023/06/03 13:55:09;;;;;;;10.60;5.22;;;26.90;50.70;;;;;;7379052;19;20014;-72
2023/06/03 13:57:41;;;;;;;18.67;5.90;;;26.90;50.70;;;;;;7378860;19;20019;-73